createdAt,value
2018-03-15T00:01:00.685Z,3.19
2018-03-15T00:02:01.402Z,3.28
2018-03-15T00:03:02.109Z,3.19
2018-03-15T00:04:02.826Z,3.19
2018-03-15T00:05:03.530Z,3.23
2018-03-15T00:06:04.236Z,3.18
2018-03-15T00:07:04.941Z,3.19
2018-03-15T00:08:05.660Z,3.18
2018-03-15T00:09:06.366Z,3.16
2018-03-15T00:10:07.073Z,3.16
2018-03-15T00:11:07.780Z,3.14
2018-03-15T00:12:08.485Z,3.16
2018-03-15T00:13:09.191Z,3.04
2018-03-15T00:14:09.895Z,3.10
2018-03-15T00:15:10.615Z,3.13
2018-03-15T00:16:11.320Z,3.08
2018-03-15T00:17:12.026Z,3.00
2018-03-15T00:18:12.743Z,3.07
2018-03-15T00:19:13.448Z,3.08
2018-03-15T00:20:14.165Z,2.98
2018-03-15T00:21:14.882Z,3.01
2018-03-15T00:22:15.587Z,2.92
2018-03-15T00:23:16.291Z,3.04
2018-03-15T00:24:16.997Z,2.98
2018-03-15T00:25:17.702Z,2.93
2018-03-15T00:26:18.419Z,2.85
2018-03-15T00:27:19.138Z,2.97
2018-03-15T00:28:19.845Z,2.95
2018-03-15T00:29:20.562Z,2.98
2018-03-15T00:30:21.272Z,2.87
2018-03-15T00:31:21.973Z,2.87
2018-03-15T00:32:22.677Z,2.82
2018-03-15T00:33:23.383Z,2.85
2018-03-15T00:34:24.087Z,2.85
2018-03-15T00:35:24.791Z,2.93
2018-03-15T00:36:25.498Z,2.85
2018-03-15T00:37:26.204Z,2.89
2018-03-15T00:38:26.910Z,2.90
2018-03-15T00:39:27.616Z,2.86
2018-03-15T00:40:28.322Z,2.85
2018-03-15T00:41:29.028Z,2.86
2018-03-15T00:42:29.735Z,2.85
2018-03-15T00:43:30.441Z,2.87
2018-03-15T00:44:31.150Z,2.89
2018-03-15T00:45:31.854Z,2.92
2018-03-15T00:46:32.561Z,2.83
2018-03-15T00:47:33.267Z,2.80
2018-03-15T00:48:33.974Z,2.80
2018-03-15T00:49:34.692Z,2.77
2018-03-15T00:50:35.397Z,2.75
2018-03-15T00:51:36.103Z,2.74
2018-03-15T00:52:36.811Z,2.79
2018-03-15T00:53:37.524Z,2.85
2018-03-15T00:54:38.229Z,2.77
2018-03-15T00:55:38.935Z,2.90
2018-03-15T00:56:39.641Z,2.75
2018-03-15T00:57:40.346Z,2.79
2018-03-15T00:58:41.051Z,2.77
2018-03-15T00:59:41.756Z,2.90
2018-03-15T01:00:42.462Z,2.83
2018-03-15T01:01:43.177Z,2.82
2018-03-15T01:02:43.883Z,2.85
2018-03-15T01:03:44.590Z,2.80
2018-03-15T01:04:45.298Z,2.83
2018-03-15T01:05:46.016Z,2.85
2018-03-15T01:06:46.721Z,2.82
2018-03-15T01:07:47.426Z,2.79
2018-03-15T01:08:48.132Z,2.83
2018-03-15T01:09:48.834Z,2.86
2018-03-15T01:10:49.540Z,2.85
2018-03-15T01:11:50.245Z,2.95
2018-03-15T01:12:50.962Z,2.83
2018-03-15T01:13:51.680Z,2.83
2018-03-15T01:14:52.385Z,2.80
2018-03-15T01:15:53.101Z,2.77
2018-03-15T01:16:53.816Z,2.75
2018-03-15T01:17:54.520Z,2.80
2018-03-15T01:18:55.224Z,2.77
2018-03-15T01:19:55.928Z,2.83
2018-03-15T01:20:56.631Z,2.85
2018-03-15T01:21:57.345Z,2.97
2018-03-15T01:22:58.049Z,2.86
2018-03-15T01:23:58.753Z,2.86
2018-03-15T01:24:59.457Z,2.85
2018-03-15T01:26:00.161Z,2.83
2018-03-15T01:27:00.867Z,2.83
2018-03-15T01:28:01.577Z,2.82
2018-03-15T01:29:02.308Z,2.89
2018-03-15T01:30:02.985Z,2.83
2018-03-15T01:31:03.699Z,2.83
2018-03-15T01:32:04.402Z,2.75
2018-03-15T01:33:05.105Z,2.80
2018-03-15T01:34:05.810Z,2.85
2018-03-15T01:35:06.529Z,2.85
2018-03-15T01:36:07.230Z,2.86
2018-03-15T01:37:07.933Z,2.83
2018-03-15T01:38:08.639Z,2.83
2018-03-15T01:39:09.353Z,2.87
2018-03-15T01:40:10.056Z,2.87
2018-03-15T01:41:10.759Z,2.85
2018-03-15T01:42:11.463Z,2.87
2018-03-15T01:43:12.168Z,2.87
2018-03-15T01:44:12.885Z,2.79
2018-03-15T01:45:13.593Z,2.85
2018-03-15T01:46:14.290Z,2.90
2018-03-15T01:47:15.009Z,2.85
2018-03-15T01:48:15.724Z,2.79
2018-03-15T01:49:16.437Z,2.80
2018-03-15T01:50:17.152Z,2.92
2018-03-15T01:51:17.856Z,2.87
2018-03-15T01:52:18.562Z,2.86
2018-03-15T01:53:19.268Z,2.89
2018-03-15T01:54:19.971Z,2.82
2018-03-15T01:55:20.719Z,2.89
2018-03-15T01:56:21.394Z,2.85
2018-03-15T01:57:22.100Z,2.82
2018-03-15T01:58:22.805Z,2.85
2018-03-15T01:59:23.511Z,2.86
2018-03-15T02:00:24.216Z,2.82
2018-03-15T02:01:24.922Z,2.86
2018-03-15T02:02:25.628Z,2.87
2018-03-15T02:03:26.345Z,2.86
2018-03-15T02:04:27.050Z,2.92
2018-03-15T02:05:27.755Z,2.85
2018-03-15T02:06:28.459Z,2.89
2018-03-15T02:07:29.175Z,2.87
2018-03-15T02:08:29.878Z,2.85
2018-03-15T02:09:30.590Z,2.83
2018-03-15T02:10:31.295Z,2.85
2018-03-15T02:11:32.000Z,2.86
2018-03-15T02:12:32.703Z,2.85
2018-03-15T02:13:33.408Z,2.85
2018-03-15T02:14:34.124Z,2.86
2018-03-15T02:15:34.829Z,2.79
2018-03-15T02:16:35.530Z,2.86
2018-03-15T02:17:36.234Z,2.83
2018-03-15T02:18:36.949Z,2.89
2018-03-15T02:19:37.664Z,2.83
2018-03-15T02:20:38.368Z,2.80
2018-03-15T02:21:39.072Z,2.85
2018-03-15T02:22:39.777Z,2.86
2018-03-15T02:23:40.482Z,2.86
2018-03-15T02:24:41.187Z,2.85
2018-03-15T02:25:41.891Z,2.86
2018-03-15T02:26:42.595Z,2.90
2018-03-15T02:27:43.310Z,2.95
2018-03-15T02:28:44.015Z,2.87
2018-03-15T02:29:44.728Z,2.87
2018-03-15T02:30:45.446Z,2.90
2018-03-15T02:31:46.151Z,2.83
2018-03-15T02:32:46.855Z,2.92
2018-03-15T02:33:47.562Z,2.82
2018-03-15T02:34:48.284Z,2.82
2018-03-15T02:35:48.979Z,2.86
2018-03-15T02:36:49.685Z,2.90
2018-03-15T02:37:50.387Z,2.92
2018-03-15T02:38:51.090Z,2.79
2018-03-15T02:39:51.793Z,2.90
2018-03-15T02:40:52.499Z,2.85
2018-03-15T02:41:53.201Z,2.85
2018-03-15T02:42:53.906Z,2.89
2018-03-15T02:43:54.623Z,2.83
2018-03-15T02:44:55.329Z,2.86
2018-03-15T02:45:56.046Z,2.93
2018-03-15T02:46:56.749Z,2.98
2018-03-15T02:47:57.466Z,2.87
2018-03-15T02:48:58.178Z,2.92
2018-03-15T02:49:58.886Z,2.93
2018-03-15T02:50:59.589Z,2.93
2018-03-15T02:52:00.297Z,2.90
2018-03-15T02:53:00.995Z,2.87
2018-03-15T02:54:01.705Z,2.92
2018-03-15T02:55:02.417Z,2.95
2018-03-15T02:56:03.121Z,3.04
2018-03-15T02:57:03.826Z,2.97
2018-03-15T02:58:04.542Z,2.98
2018-03-15T02:59:05.267Z,3.04
2018-03-15T03:00:05.962Z,2.98
2018-03-15T03:01:06.664Z,3.00
2018-03-15T03:02:07.379Z,2.95
2018-03-15T03:03:08.132Z,2.85
2018-03-15T03:04:08.787Z,2.85
2018-03-15T03:05:09.491Z,2.85
2018-03-15T03:06:10.195Z,2.87
2018-03-15T03:07:10.911Z,2.83
2018-03-15T03:08:11.616Z,2.80
2018-03-15T03:09:12.340Z,2.86
2018-03-15T03:10:13.023Z,2.83
2018-03-15T03:11:13.727Z,2.85
2018-03-15T03:12:14.442Z,2.86
2018-03-15T03:13:15.147Z,2.87
2018-03-15T03:14:15.849Z,2.89
2018-03-15T03:15:16.554Z,2.93
2018-03-15T03:16:17.260Z,2.75
2018-03-15T03:17:17.965Z,2.86
2018-03-15T03:18:18.679Z,2.83
2018-03-15T03:19:19.383Z,2.80
2018-03-15T03:20:20.086Z,2.83
2018-03-15T03:21:20.792Z,2.89
2018-03-15T03:22:21.496Z,2.85
2018-03-15T03:23:22.201Z,2.87
2018-03-15T03:24:22.907Z,2.86
2018-03-15T03:25:23.619Z,2.83
2018-03-15T03:26:24.333Z,2.80
2018-03-15T03:27:25.050Z,2.77
2018-03-15T03:28:25.755Z,2.74
2018-03-15T03:29:26.461Z,2.74
2018-03-15T03:30:27.165Z,2.82
2018-03-15T03:31:27.870Z,2.79
2018-03-15T03:32:28.585Z,2.72
2018-03-15T03:33:29.289Z,2.80
2018-03-15T03:34:29.994Z,2.75
2018-03-15T03:35:30.700Z,2.79
2018-03-15T03:36:31.405Z,2.72
2018-03-15T03:37:32.110Z,2.83
2018-03-15T03:38:32.814Z,2.80
2018-03-15T03:39:33.521Z,2.69
2018-03-15T03:40:34.226Z,2.67
2018-03-15T03:41:34.930Z,2.74
2018-03-15T03:42:35.634Z,2.90
2018-03-15T03:43:36.339Z,2.83
2018-03-15T03:44:37.042Z,2.75
2018-03-15T03:45:37.747Z,2.72
2018-03-15T03:46:38.449Z,2.77
2018-03-15T03:47:39.154Z,2.82
2018-03-15T03:48:39.865Z,2.71
2018-03-15T03:49:40.569Z,2.71
2018-03-15T03:50:41.290Z,2.82
2018-03-15T03:51:42.000Z,2.83
2018-03-15T03:52:42.700Z,2.77
2018-03-15T03:53:43.404Z,2.68
2018-03-15T03:54:44.114Z,2.77
2018-03-15T03:55:44.816Z,2.72
2018-03-15T03:56:45.522Z,2.68
2018-03-15T03:57:46.226Z,2.79
2018-03-15T03:58:46.941Z,2.75
2018-03-15T03:59:47.647Z,2.74
2018-03-15T04:00:48.352Z,2.80
2018-03-15T04:01:49.057Z,2.68
2018-03-15T04:02:49.762Z,2.68
2018-03-15T04:03:50.468Z,2.75
2018-03-15T04:04:51.174Z,2.75
2018-03-15T04:05:51.879Z,2.75
2018-03-15T04:06:52.584Z,2.77
2018-03-15T04:07:53.290Z,2.72
2018-03-15T04:08:53.996Z,2.69
2018-03-15T04:09:54.712Z,2.69
2018-03-15T04:10:55.417Z,2.83
2018-03-15T04:11:56.132Z,2.68
2018-03-15T04:12:56.847Z,2.71
2018-03-15T04:13:57.562Z,2.71
2018-03-15T04:14:58.265Z,2.77
2018-03-15T04:15:58.968Z,2.67
2018-03-15T04:16:59.673Z,2.79
2018-03-15T04:18:00.378Z,2.77
2018-03-15T04:19:01.083Z,2.77
2018-03-15T04:20:01.787Z,2.77
2018-03-15T04:21:02.495Z,2.75
2018-03-15T04:22:03.206Z,2.74
2018-03-15T04:23:03.909Z,2.71
2018-03-15T04:24:04.613Z,2.68
2018-03-15T04:25:05.318Z,2.69
2018-03-15T04:26:06.022Z,2.82
2018-03-15T04:27:06.737Z,2.72
2018-03-15T04:28:07.441Z,2.75
2018-03-15T04:29:08.144Z,2.75
2018-03-15T04:30:08.861Z,2.77
2018-03-15T04:31:09.566Z,2.80
2018-03-15T04:32:10.287Z,2.82
2018-03-15T04:33:10.992Z,2.77
2018-03-15T04:34:11.744Z,2.77
2018-03-15T04:35:12.423Z,2.79
2018-03-15T04:36:13.136Z,2.72
2018-03-15T04:37:13.838Z,2.79
2018-03-15T04:38:14.543Z,2.71
2018-03-15T04:39:15.258Z,2.82
2018-03-15T04:40:15.964Z,2.77
2018-03-15T04:41:16.680Z,2.87
2018-03-15T04:42:17.385Z,2.77
2018-03-15T04:43:18.089Z,2.80
2018-03-15T04:44:18.807Z,2.85
2018-03-15T04:45:19.510Z,2.82
2018-03-15T04:46:20.215Z,2.80
2018-03-15T04:47:20.921Z,2.72
2018-03-15T04:48:21.626Z,2.74
2018-03-15T04:49:22.332Z,2.77
2018-03-15T04:50:23.047Z,2.72
2018-03-15T04:51:23.751Z,2.75
2018-03-15T04:52:24.457Z,2.72
2018-03-15T04:53:25.158Z,2.69
2018-03-15T04:54:25.863Z,2.68
2018-03-15T04:55:26.568Z,2.85
2018-03-15T04:56:27.273Z,2.67
2018-03-15T04:57:27.978Z,2.77
2018-03-15T04:58:28.701Z,2.79
2018-03-15T04:59:29.389Z,2.83
2018-03-15T05:00:30.094Z,2.80
2018-03-15T05:01:30.800Z,2.77
2018-03-15T05:02:31.506Z,2.77
2018-03-15T05:03:32.220Z,2.72
2018-03-15T05:04:32.924Z,2.80
2018-03-15T05:05:33.630Z,2.79
2018-03-15T05:06:34.345Z,2.65
2018-03-15T05:07:35.061Z,2.75
2018-03-15T05:08:35.766Z,2.79
2018-03-15T05:09:36.470Z,2.80
2018-03-15T05:10:37.173Z,2.77
2018-03-15T05:11:37.880Z,2.86
2018-03-15T05:12:38.669Z,2.75
2018-03-15T05:13:39.293Z,2.83
2018-03-15T05:14:39.997Z,2.79
2018-03-15T05:15:40.699Z,2.80
2018-03-15T05:16:41.401Z,2.86
2018-03-15T05:17:42.106Z,2.72
2018-03-15T05:18:42.809Z,2.74
2018-03-15T05:19:43.513Z,2.69
2018-03-15T05:20:44.219Z,2.80
2018-03-15T05:21:44.935Z,2.77
2018-03-15T05:22:45.637Z,2.75
2018-03-15T05:23:46.350Z,2.79
2018-03-15T05:24:47.066Z,2.74
2018-03-15T05:25:47.771Z,2.74
2018-03-15T05:26:48.476Z,2.83
2018-03-15T05:27:49.180Z,2.80
2018-03-15T05:28:49.896Z,2.87
2018-03-15T05:29:50.601Z,2.77
2018-03-15T05:30:51.308Z,2.80
2018-03-15T05:31:52.022Z,2.83
2018-03-15T05:32:52.724Z,2.75
2018-03-15T05:33:53.430Z,2.89
2018-03-15T05:34:54.134Z,2.82
2018-03-15T05:35:54.842Z,2.79
2018-03-15T05:36:55.542Z,2.85
2018-03-15T05:37:56.249Z,2.75
2018-03-15T05:38:56.954Z,2.72
2018-03-15T05:39:57.661Z,2.77
2018-03-15T05:40:58.370Z,2.82
2018-03-15T05:41:59.073Z,2.77
2018-03-15T05:42:59.790Z,2.77
2018-03-15T05:44:00.496Z,2.82
2018-03-15T05:45:01.209Z,2.74
2018-03-15T05:46:01.921Z,2.80
2018-03-15T05:47:02.628Z,2.77
2018-03-15T05:48:03.334Z,2.80
2018-03-15T05:49:04.057Z,2.85
2018-03-15T05:50:04.770Z,2.77
2018-03-15T05:51:05.477Z,2.89
2018-03-15T05:52:06.200Z,2.85
2018-03-15T05:53:06.915Z,2.79
2018-03-15T05:54:07.633Z,2.79
2018-03-15T05:55:08.353Z,2.72
2018-03-15T05:56:09.073Z,2.82
2018-03-15T05:57:09.778Z,2.83
2018-03-15T05:58:10.486Z,2.93
2018-03-15T05:59:11.200Z,2.75
2018-03-15T06:00:11.900Z,2.85
2018-03-15T06:01:12.712Z,2.85
2018-03-15T06:02:13.314Z,2.82
2018-03-15T06:03:14.020Z,2.93
2018-03-15T06:04:14.725Z,2.92
2018-03-15T06:05:15.434Z,2.90
2018-03-15T06:06:16.146Z,2.79
2018-03-15T06:07:16.861Z,2.83
2018-03-15T06:08:17.570Z,2.95
2018-03-15T06:09:18.277Z,2.90
2018-03-15T06:10:18.983Z,3.01
2018-03-15T06:11:19.691Z,2.95
2018-03-15T06:12:20.402Z,2.98
2018-03-15T06:13:21.112Z,3.01
2018-03-15T06:14:21.821Z,3.14
2018-03-15T06:15:22.529Z,3.11
2018-03-15T06:16:23.239Z,3.04
2018-03-15T06:17:23.944Z,3.16
2018-03-15T06:18:24.662Z,3.26
2018-03-15T06:19:25.372Z,3.29
2018-03-15T06:20:26.085Z,3.41
2018-03-15T06:21:26.802Z,3.42
2018-03-15T06:22:27.514Z,3.53
2018-03-15T06:23:28.231Z,3.56
2018-03-15T06:24:28.941Z,3.70
2018-03-15T06:25:29.650Z,3.78
2018-03-15T06:26:30.360Z,3.87
2018-03-15T06:27:31.070Z,3.86
2018-03-15T06:28:31.778Z,3.81
2018-03-15T06:29:32.494Z,3.95
2018-03-15T06:30:33.197Z,4.04
2018-03-15T06:31:33.906Z,4.10
2018-03-15T06:32:34.615Z,4.24
2018-03-15T06:33:35.326Z,4.06
2018-03-15T06:34:36.038Z,4.05
2018-03-15T06:35:36.750Z,4.06
2018-03-15T06:36:37.461Z,4.20
2018-03-15T06:37:38.173Z,4.34
2018-03-15T06:38:38.883Z,4.26
2018-03-15T06:39:39.596Z,4.48
2018-03-15T06:40:40.308Z,4.58
2018-03-15T06:41:41.036Z,4.40
2018-03-15T06:42:41.758Z,4.48
2018-03-15T06:43:42.469Z,4.53
2018-03-15T06:44:43.181Z,4.60
2018-03-15T06:45:43.893Z,4.73
2018-03-15T06:46:44.603Z,4.62
2018-03-15T06:47:45.317Z,4.73
2018-03-15T06:48:46.026Z,4.80
2018-03-15T06:49:46.738Z,4.94
2018-03-15T06:50:47.453Z,4.97
2018-03-15T06:51:48.166Z,5.12
2018-03-15T06:52:48.878Z,5.14
2018-03-15T06:53:49.590Z,5.18
2018-03-15T06:54:50.314Z,5.32
2018-03-15T06:55:51.025Z,5.33
2018-03-15T06:56:51.737Z,5.38
2018-03-15T06:57:52.448Z,5.44
2018-03-15T06:58:53.161Z,5.26
2018-03-15T06:59:53.877Z,5.41
2018-03-15T07:00:54.604Z,5.46
2018-03-15T07:01:55.325Z,5.41
2018-03-15T07:02:56.037Z,5.62
2018-03-15T07:03:56.763Z,5.68
2018-03-15T07:04:57.482Z,5.75
2018-03-15T07:05:58.203Z,5.71
2018-03-15T07:06:58.914Z,5.65
2018-03-15T07:07:59.642Z,5.79
2018-03-15T07:09:00.356Z,5.82
2018-03-15T07:10:01.072Z,5.97
2018-03-15T07:11:01.791Z,5.94
2018-03-15T07:12:02.505Z,5.98
2018-03-15T07:13:03.219Z,6.05
2018-03-15T07:14:03.931Z,6.14
2018-03-15T07:15:04.647Z,6.14
2018-03-15T07:16:05.362Z,6.07
2018-03-15T07:17:06.077Z,6.19
2018-03-15T07:18:06.793Z,6.35
2018-03-15T07:19:07.513Z,6.22
2018-03-15T07:20:08.239Z,6.20
2018-03-15T07:21:08.966Z,6.19
2018-03-15T07:22:09.686Z,6.35
2018-03-15T07:23:10.412Z,6.42
2018-03-15T07:24:11.127Z,6.56
2018-03-15T07:25:11.844Z,6.70
2018-03-15T07:26:12.561Z,6.66
2018-03-15T07:27:13.279Z,6.36
2018-03-15T07:28:14.011Z,6.52
2018-03-15T07:29:14.728Z,6.57
2018-03-15T07:30:15.445Z,6.82
2018-03-15T07:31:16.162Z,6.89
2018-03-15T07:32:16.880Z,6.72
2018-03-15T07:33:17.598Z,6.74
2018-03-15T07:34:18.314Z,6.67
2018-03-15T07:35:19.048Z,6.62
2018-03-15T07:36:19.763Z,6.74
2018-03-15T07:37:20.493Z,6.75
2018-03-15T07:38:21.224Z,6.64
2018-03-15T07:39:21.956Z,6.69
2018-03-15T07:40:22.662Z,6.72
2018-03-15T07:41:23.378Z,6.88
2018-03-15T07:42:24.099Z,6.69
2018-03-15T07:43:24.815Z,6.72
2018-03-15T07:44:25.534Z,6.93
2018-03-15T07:45:26.265Z,7.02
2018-03-15T07:46:26.986Z,7.13
2018-03-15T07:47:27.705Z,7.21
2018-03-15T07:48:28.426Z,7.11
2018-03-15T07:49:29.146Z,7.14
2018-03-15T07:50:29.866Z,6.95
2018-03-15T07:51:30.599Z,7.28
2018-03-15T07:52:31.328Z,7.56
2018-03-15T07:53:32.050Z,7.53
2018-03-15T07:54:32.771Z,7.70
2018-03-15T07:55:33.491Z,7.87
2018-03-15T07:56:34.224Z,7.72
2018-03-15T07:57:34.944Z,7.75
2018-03-15T07:58:35.674Z,8.13
2018-03-15T07:59:36.396Z,8.10
2018-03-15T08:00:37.116Z,8.01
2018-03-15T08:01:37.837Z,8.00
2018-03-15T08:02:38.559Z,7.82
2018-03-15T08:03:39.290Z,7.88
2018-03-15T08:04:40.011Z,8.19
2018-03-15T08:05:40.735Z,8.03
2018-03-15T08:06:41.464Z,7.95
2018-03-15T08:07:42.200Z,8.26
2018-03-15T08:08:42.930Z,8.38
2018-03-15T08:09:43.653Z,8.13
2018-03-15T08:10:44.374Z,8.12
2018-03-15T08:11:45.094Z,8.12
2018-03-15T08:12:45.823Z,8.30
2018-03-15T08:13:46.544Z,8.69
2018-03-15T08:14:47.267Z,8.99
2018-03-15T08:15:47.988Z,9.10
2018-03-15T08:16:48.711Z,8.71
2018-03-15T08:17:49.433Z,8.85
2018-03-15T08:18:50.154Z,8.63
2018-03-15T08:19:50.888Z,8.44
2018-03-15T08:20:51.608Z,8.46
2018-03-15T08:21:52.332Z,8.09
2018-03-15T08:22:53.068Z,8.34
2018-03-15T08:23:53.789Z,8.49
2018-03-15T08:24:54.518Z,8.99
2018-03-15T08:25:55.240Z,8.69
2018-03-15T08:26:55.962Z,8.78
2018-03-15T08:27:56.689Z,9.10
2018-03-15T08:28:57.427Z,9.44
2018-03-15T08:29:58.191Z,9.72
2018-03-15T08:30:58.876Z,9.73
2018-03-15T08:31:59.600Z,9.19
2018-03-15T08:33:00.326Z,9.74
2018-03-15T08:34:01.048Z,9.64
2018-03-15T08:35:01.770Z,9.84
2018-03-15T08:36:02.494Z,9.97
2018-03-15T08:37:03.231Z,10.17
2018-03-15T08:38:03.954Z,10.04
2018-03-15T08:39:04.682Z,9.83
2018-03-15T08:40:05.408Z,10.26
2018-03-15T08:41:06.133Z,10.67
2018-03-15T08:42:06.862Z,10.81
2018-03-15T08:43:07.587Z,10.40
2018-03-15T08:44:08.321Z,10.04
2018-03-15T08:45:09.039Z,9.73
2018-03-15T08:46:09.775Z,9.82
2018-03-15T08:47:10.500Z,9.86
2018-03-15T08:48:11.227Z,10.02
2018-03-15T08:49:11.952Z,9.91
2018-03-15T08:50:12.676Z,10.16
2018-03-15T08:51:13.405Z,10.01
2018-03-15T08:52:14.138Z,10.17
2018-03-15T08:53:14.856Z,10.42
2018-03-15T08:54:15.582Z,9.99
2018-03-15T08:55:16.307Z,9.64
2018-03-15T08:56:17.032Z,9.69
2018-03-15T08:57:17.775Z,9.76
2018-03-15T08:58:18.585Z,9.92
2018-03-15T08:59:19.239Z,9.89
2018-03-15T09:00:19.964Z,9.77
2018-03-15T09:01:20.693Z,10.10
2018-03-15T09:02:21.422Z,10.13
2018-03-15T09:03:22.159Z,9.79
2018-03-15T09:04:22.928Z,9.98
2018-03-15T09:05:23.668Z,9.80
2018-03-15T09:06:24.411Z,10.20
2018-03-15T09:07:25.070Z,10.68
2018-03-15T09:08:25.795Z,10.75
2018-03-15T09:09:26.523Z,10.72
2018-03-15T09:10:27.251Z,11.08
2018-03-15T09:11:27.980Z,11.40
2018-03-15T09:12:28.710Z,11.90
2018-03-15T09:13:29.437Z,12.17
2018-03-15T09:14:30.178Z,11.54
2018-03-15T09:15:30.917Z,11.14
2018-03-15T09:16:31.646Z,10.94
2018-03-15T09:17:32.374Z,10.68
2018-03-15T09:18:33.103Z,10.49
2018-03-15T09:19:33.832Z,10.96
2018-03-15T09:20:34.574Z,11.14
2018-03-15T09:21:35.335Z,11.44
2018-03-15T09:22:36.035Z,11.00
2018-03-15T09:23:36.791Z,11.70
2018-03-15T09:24:37.504Z,11.54
2018-03-15T09:25:38.235Z,10.86
2018-03-15T09:26:39.011Z,10.60
2018-03-15T09:27:39.693Z,10.78
2018-03-15T09:28:40.435Z,11.05
2018-03-15T09:29:41.165Z,11.32
2018-03-15T09:30:41.893Z,10.92
2018-03-15T09:31:42.621Z,11.33
2018-03-15T09:32:43.362Z,11.40
2018-03-15T09:33:44.094Z,11.45
2018-03-15T09:34:44.828Z,10.94
2018-03-15T09:35:45.553Z,10.79
2018-03-15T09:36:46.284Z,11.57
2018-03-15T09:37:47.013Z,11.17
2018-03-15T09:38:47.743Z,11.29
2018-03-15T09:39:48.477Z,11.40
2018-03-15T09:40:49.205Z,11.26
2018-03-15T09:41:49.935Z,11.55
2018-03-15T09:42:50.664Z,11.43
2018-03-15T09:43:51.396Z,11.50
2018-03-15T09:44:52.124Z,11.41
2018-03-15T09:45:52.869Z,11.83
2018-03-15T09:46:53.599Z,11.63
2018-03-15T09:47:54.329Z,11.54
2018-03-15T09:48:55.061Z,11.12
2018-03-15T09:49:55.806Z,11.33
2018-03-15T09:50:56.542Z,10.67
2018-03-15T09:51:57.273Z,11.15
2018-03-15T09:52:58.009Z,10.87
2018-03-15T09:53:58.734Z,11.11
2018-03-15T09:54:59.465Z,11.36
2018-03-15T09:56:00.206Z,11.59
2018-03-15T09:57:00.947Z,11.97
2018-03-15T09:58:01.689Z,11.99
2018-03-15T09:59:02.421Z,12.15
2018-03-15T10:00:03.151Z,12.15
2018-03-15T10:01:03.881Z,12.43
2018-03-15T10:02:04.613Z,12.57
2018-03-15T10:03:05.346Z,12.67
2018-03-15T10:04:06.076Z,12.94
2018-03-15T10:05:06.807Z,12.42
2018-03-15T10:06:07.538Z,12.46
2018-03-15T10:07:08.272Z,12.37
2018-03-15T10:08:09.007Z,12.67
2018-03-15T10:09:09.737Z,12.25
2018-03-15T10:10:10.468Z,12.21
2018-03-15T10:11:11.216Z,11.91
2018-03-15T10:12:11.944Z,11.62
2018-03-15T10:13:12.679Z,11.60
2018-03-15T10:14:13.415Z,11.72
2018-03-15T10:15:14.146Z,11.44
2018-03-15T10:16:14.875Z,11.35
2018-03-15T10:17:15.619Z,11.29
2018-03-15T10:18:16.359Z,11.41
2018-03-15T10:19:17.103Z,11.77
2018-03-15T10:20:17.845Z,11.54
2018-03-15T10:21:18.576Z,11.35
2018-03-15T10:22:19.307Z,11.48
2018-03-15T10:23:20.045Z,11.22
2018-03-15T10:24:20.775Z,11.40
2018-03-15T10:25:26.391Z,10.92
2018-03-15T10:26:22.248Z,11.30
2018-03-15T10:27:22.979Z,11.36
2018-03-15T10:28:23.709Z,11.55
2018-03-15T10:29:24.440Z,11.36
2018-03-15T10:30:25.170Z,11.27
2018-03-15T10:31:25.899Z,11.40
2018-03-15T10:32:26.630Z,11.41
2018-03-15T10:33:27.361Z,11.36
2018-03-15T10:34:28.090Z,11.47
2018-03-15T10:35:28.832Z,11.48
2018-03-15T10:36:29.560Z,11.43
2018-03-15T10:37:30.291Z,11.43
2018-03-15T10:38:31.022Z,11.69
2018-03-15T10:39:31.752Z,12.13
2018-03-15T10:40:32.484Z,12.55
2018-03-15T10:41:33.216Z,12.15
2018-03-15T10:42:33.950Z,12.13
2018-03-15T10:43:34.678Z,12.24
2018-03-15T10:44:35.410Z,12.17
2018-03-15T10:45:36.138Z,11.87
2018-03-15T10:46:36.869Z,11.66
2018-03-15T10:47:37.599Z,11.68
2018-03-15T10:48:38.328Z,12.13
2018-03-15T10:49:39.061Z,12.43
2018-03-15T10:50:39.792Z,12.76
2018-03-15T10:51:40.521Z,11.86
2018-03-15T10:52:41.253Z,12.03
2018-03-15T10:53:41.984Z,11.37
2018-03-15T10:54:42.715Z,11.83
2018-03-15T10:55:43.447Z,11.88
2018-03-15T10:56:44.180Z,11.97
2018-03-15T10:57:44.910Z,12.24
2018-03-15T10:58:45.640Z,12.86
2018-03-15T10:59:46.369Z,13.15
2018-03-15T11:00:47.100Z,13.23
2018-03-15T11:01:47.832Z,12.67
2018-03-15T11:02:48.564Z,12.82
2018-03-15T11:03:49.295Z,12.83
2018-03-15T11:04:50.027Z,12.79
2018-03-15T11:05:50.763Z,13.05
2018-03-15T11:06:51.495Z,13.01
2018-03-15T11:07:52.232Z,13.12
2018-03-15T11:08:52.960Z,12.98
2018-03-15T11:09:53.691Z,12.28
2018-03-15T11:10:54.421Z,12.90
2018-03-15T11:11:55.154Z,13.39
2018-03-15T11:12:55.887Z,13.96
2018-03-15T11:13:56.627Z,14.55
2018-03-15T11:14:57.359Z,14.30
2018-03-15T11:15:58.092Z,13.92
2018-03-15T11:16:58.837Z,14.35
2018-03-15T11:17:59.570Z,13.93
2018-03-15T11:19:00.318Z,13.72
2018-03-15T11:20:01.065Z,12.93
2018-03-15T11:21:01.809Z,13.15
2018-03-15T11:22:02.541Z,13.49
2018-03-15T11:23:03.272Z,13.04
2018-03-15T11:24:04.018Z,13.22
2018-03-15T11:25:04.750Z,13.08
2018-03-15T11:26:05.480Z,13.67
2018-03-15T11:27:06.212Z,13.54
2018-03-15T11:28:06.943Z,13.53
2018-03-15T11:29:07.676Z,12.75
2018-03-15T11:30:08.417Z,12.68
2018-03-15T11:31:09.140Z,12.54
2018-03-15T11:32:09.869Z,12.76
2018-03-15T11:33:10.604Z,12.45
2018-03-15T11:34:11.329Z,12.68
2018-03-15T11:35:12.060Z,12.22
2018-03-15T11:36:12.791Z,12.47
2018-03-15T11:37:13.534Z,12.73
2018-03-15T11:38:14.274Z,12.58
2018-03-15T11:39:15.016Z,12.54
2018-03-15T11:40:15.749Z,12.24
2018-03-15T11:41:16.483Z,12.54
2018-03-15T11:42:17.210Z,12.54
2018-03-15T11:43:17.954Z,12.57
2018-03-15T11:44:18.694Z,12.58
2018-03-15T11:45:19.424Z,12.86
2018-03-15T11:46:20.155Z,13.09
2018-03-15T11:47:20.884Z,13.53
2018-03-15T11:48:21.612Z,13.19
2018-03-15T11:49:22.354Z,13.63
2018-03-15T11:50:23.084Z,12.93
2018-03-15T11:51:23.816Z,13.25
2018-03-15T11:52:24.546Z,13.27
2018-03-15T11:53:25.286Z,13.31
2018-03-15T11:54:26.016Z,13.62
2018-03-15T11:55:26.745Z,13.33
2018-03-15T11:56:27.478Z,13.28
2018-03-15T11:57:28.213Z,12.85
2018-03-15T11:58:28.942Z,13.56
2018-03-15T11:59:29.672Z,14.04
2018-03-15T12:00:30.402Z,13.78
2018-03-15T12:01:31.145Z,14.20
2018-03-15T12:02:31.874Z,13.79
2018-03-15T12:03:32.617Z,14.47
2018-03-15T12:04:33.349Z,14.11
2018-03-15T12:05:34.083Z,13.37
2018-03-15T12:06:34.816Z,13.90
2018-03-15T12:07:35.589Z,14.22
2018-03-15T12:08:36.281Z,14.30
2018-03-15T12:09:37.013Z,14.48
2018-03-15T12:10:37.749Z,14.20
2018-03-15T12:11:38.482Z,14.72
2018-03-15T12:12:39.225Z,14.82
2018-03-15T12:13:39.964Z,14.37
2018-03-15T12:14:40.697Z,14.20
2018-03-15T12:15:41.432Z,13.92
2018-03-15T12:16:42.166Z,13.86
2018-03-15T12:17:42.904Z,14.11
2018-03-15T12:18:43.637Z,14.11
2018-03-15T12:19:44.370Z,14.20
2018-03-15T12:20:45.117Z,14.32
2018-03-15T12:21:45.850Z,14.72
2018-03-15T12:22:46.583Z,14.43
2018-03-15T12:23:47.328Z,14.58
2018-03-15T12:24:48.074Z,14.82
2018-03-15T12:25:48.818Z,14.00
2018-03-15T12:26:49.555Z,14.23
2018-03-15T12:27:50.300Z,14.25
2018-03-15T12:28:51.032Z,14.40
2018-03-15T12:29:51.766Z,14.41
2018-03-15T12:30:52.497Z,14.60
2018-03-15T12:31:53.231Z,14.92
2018-03-15T12:32:53.966Z,15.44
2018-03-15T12:33:54.700Z,15.57
2018-03-15T12:34:55.435Z,15.75
2018-03-15T12:35:56.170Z,14.89
2018-03-15T12:36:56.903Z,14.79
2018-03-15T12:37:57.638Z,14.63
2018-03-15T12:38:58.372Z,14.00
2018-03-15T12:39:59.104Z,14.30
2018-03-15T12:40:59.837Z,14.04
2018-03-15T12:42:00.571Z,14.03
2018-03-15T12:43:01.306Z,14.26
2018-03-15T12:44:02.034Z,14.23
2018-03-15T12:45:02.770Z,14.22
2018-03-15T12:46:03.501Z,14.05
2018-03-15T12:47:04.232Z,14.07
2018-03-15T12:48:04.962Z,14.04
2018-03-15T12:49:05.695Z,13.96
2018-03-15T12:50:06.426Z,14.14
2018-03-15T12:51:07.157Z,14.15
2018-03-15T12:52:07.908Z,14.05
2018-03-15T12:53:08.628Z,13.57
2018-03-15T12:54:09.358Z,13.90
2018-03-15T12:55:10.086Z,13.78
2018-03-15T12:56:10.814Z,14.04
2018-03-15T12:57:11.555Z,13.74
2018-03-15T12:58:12.284Z,13.87
2018-03-15T12:59:13.074Z,13.72
2018-03-15T13:00:13.745Z,13.86
2018-03-15T13:01:14.475Z,14.15
2018-03-15T13:02:15.204Z,14.41
2018-03-15T13:03:15.932Z,14.17
2018-03-15T13:04:16.662Z,14.15
2018-03-15T13:05:17.389Z,14.72
2018-03-15T13:06:18.118Z,15.22
2018-03-15T13:07:18.858Z,14.94
2018-03-15T13:08:19.586Z,14.92
2018-03-15T13:09:20.316Z,14.85
2018-03-15T13:10:21.043Z,14.94
2018-03-15T13:11:21.771Z,14.77
2018-03-15T13:12:22.504Z,14.45
2018-03-15T13:13:23.230Z,14.63
2018-03-15T13:14:23.959Z,14.28
2018-03-15T13:15:24.685Z,14.41
2018-03-15T13:16:25.427Z,14.53
2018-03-15T13:17:26.166Z,14.41
2018-03-15T13:18:26.891Z,14.37
2018-03-15T13:19:27.619Z,14.51